sensor_id;sensor_type;location;lat;lon;timestamp;pressure;altitude;pressure_sealevel;temperature;humidity
26823;BME280;14852;51.910;8.878;2024-03-23T00:54:00;99050.03;;;11.14;61.08
26823;BME280;14852;51.910;8.878;2024-03-23T00:56:25;99045.13;;;11.09;61.36
26823;BME280;14852;51.910;8.878;2024-03-23T00:58:51;99042.75;;;11.06;61.17
26823;BME280;14852;51.910;8.878;2024-03-23T01:01:17;99041.06;;;11.05;61.39
26823;BME280;14852;51.910;8.878;2024-03-23T01:03:42;99037.84;;;11.02;61.23
26823;BME280;14852;51.910;8.878;2024-03-23T01:06:08;99031.16;;;10.98;61.02
26823;BME280;14852;51.910;8.878;2024-03-23T01:08:34;99028.78;;;10.95;61.22
26823;BME280;14852;51.910;8.878;2024-03-23T01:11:01;99028.03;;;10.93;61.49
26823;BME280;14852;51.910;8.878;2024-03-23T01:13:28;99017.84;;;10.89;61.29
26823;BME280;14852;51.910;8.878;2024-03-23T01:15:56;99018.56;;;10.92;61.27
26823;BME280;14852;51.910;8.878;2024-03-23T01:18:23;99016.81;;;10.92;61.22
26823;BME280;14852;51.910;8.878;2024-03-23T01:20:49;99022.09;;;10.91;61.15
26823;BME280;14852;51.910;8.878;2024-03-23T01:23:15;99010.78;;;10.92;61.19
26823;BME280;14852;51.910;8.878;2024-03-23T01:25:41;99018.69;;;10.90;61.33
26823;BME280;14852;51.910;8.878;2024-03-23T01:28:07;99008.38;;;10.88;61.08
26823;BME280;14852;51.910;8.878;2024-03-23T01:30:34;99010.25;;;10.86;61.38
26823;BME280;14852;51.910;8.878;2024-03-23T01:33:00;99007.72;;;10.85;61.36
26823;BME280;14852;51.910;8.878;2024-03-23T01:35:26;99004.22;;;10.86;61.33
26823;BME280;14852;51.910;8.878;2024-03-23T01:37:52;98992.03;;;10.86;61.26
26823;BME280;14852;51.910;8.878;2024-03-23T01:40:18;98988.63;;;10.86;61.24
26823;BME280;14852;51.910;8.878;2024-03-23T01:43:05;98999.56;;;10.91;61.02
26823;BME280;14852;51.910;8.878;2024-03-23T01:45:32;98986.84;;;10.86;60.92
26823;BME280;14852;51.910;8.878;2024-03-23T01:47:59;98973.84;;;10.86;61.29
26823;BME280;14852;51.910;8.878;2024-03-23T01:50:25;98972.41;;;10.82;61.42
26823;BME280;14852;51.910;8.878;2024-03-23T01:52:51;98974.28;;;10.80;61.47
26823;BME280;14852;51.910;8.878;2024-03-23T01:55:17;98970.84;;;10.80;61.13
26823;BME280;14852;51.910;8.878;2024-03-23T01:57:43;98966.66;;;10.77;61.10
26823;BME280;14852;51.910;8.878;2024-03-23T02:00:09;98960.72;;;10.75;61.31
26823;BME280;14852;51.910;8.878;2024-03-23T02:02:44;98962.50;;;10.75;61.35
26823;BME280;14852;51.910;8.878;2024-03-23T02:05:11;98957.53;;;10.72;61.19
26823;BME280;14852;51.910;8.878;2024-03-23T02:07:42;98958.38;;;10.72;61.74
26823;BME280;14852;51.910;8.878;2024-03-23T02:10:10;98956.97;;;10.67;61.14
26823;BME280;14852;51.910;8.878;2024-03-23T02:12:36;98947.53;;;10.66;61.32
26823;BME280;14852;51.910;8.878;2024-03-23T02:15:03;98939.81;;;10.64;61.47
26823;BME280;14852;51.910;8.878;2024-03-23T02:17:31;98931.41;;;10.61;61.45
26823;BME280;14852;51.910;8.878;2024-03-23T02:19:57;98938.25;;;10.62;61.35
26823;BME280;14852;51.910;8.878;2024-03-23T02:22:23;98927.25;;;10.58;61.44
26823;BME280;14852;51.910;8.878;2024-03-23T02:24:49;98931.63;;;10.58;61.71
26823;BME280;14852;51.910;8.878;2024-03-23T02:27:14;98934.31;;;10.56;61.49
26823;BME280;14852;51.910;8.878;2024-03-23T02:29:40;98926.59;;;10.55;61.71
26823;BME280;14852;51.910;8.878;2024-03-23T02:32:06;98922.44;;;10.52;61.84
26823;BME280;14852;51.910;8.878;2024-03-23T02:34:35;98918.19;;;10.51;61.77
26823;BME280;14852;51.910;8.878;2024-03-23T02:37:00;98929.41;;;10.51;61.78
26823;BME280;14852;51.910;8.878;2024-03-23T02:39:26;98922.53;;;10.50;61.53
26823;BME280;14852;51.910;8.878;2024-03-23T02:41:52;98923.59;;;10.48;61.50
26823;BME280;14852;51.910;8.878;2024-03-23T02:44:18;98917.84;;;10.43;61.77
26823;BME280;14852;51.910;8.878;2024-03-23T02:46:44;98928.34;;;10.41;61.25
26823;BME280;14852;51.910;8.878;2024-03-23T02:49:09;98927.72;;;10.38;61.51
26823;BME280;14852;51.910;8.878;2024-03-23T02:51:35;98925.97;;;10.38;61.55
26823;BME280;14852;51.910;8.878;2024-03-23T02:54:01;98923.56;;;10.35;61.47
26823;BME280;14852;51.910;8.878;2024-03-23T02:56:27;98925.41;;;10.33;61.63
26823;BME280;14852;51.910;8.878;2024-03-23T02:58:52;98922.06;;;10.31;61.69
26823;BME280;14852;51.910;8.878;2024-03-23T03:01:18;98918.75;;;10.29;61.63
26823;BME280;14852;51.910;8.878;2024-03-23T03:03:44;98918.97;;;10.26;61.36
26823;BME280;14852;51.910;8.878;2024-03-23T03:06:10;98922.66;;;10.22;61.86
26823;BME280;14852;51.910;8.878;2024-03-23T03:08:35;98924.53;;;10.20;61.71
26823;BME280;14852;51.910;8.878;2024-03-23T03:11:01;98925.50;;;10.17;61.82
26823;BME280;14852;51.910;8.878;2024-03-23T03:13:27;98917.00;;;10.15;61.96
26823;BME280;14852;51.910;8.878;2024-03-23T03:15:53;98910.16;;;10.14;61.85
26823;BME280;14852;51.910;8.878;2024-03-23T03:18:18;98912.75;;;10.14;61.74
26823;BME280;14852;51.910;8.878;2024-03-23T03:20:45;98899.78;;;10.14;62.03
26823;BME280;14852;51.910;8.878;2024-03-23T03:23:11;98897.28;;;10.13;61.84
26823;BME280;14852;51.910;8.878;2024-03-23T03:25:36;98903.41;;;10.12;61.85
26823;BME280;14852;51.910;8.878;2024-03-23T03:28:03;98901.81;;;10.09;61.82
26823;BME280;14852;51.910;8.878;2024-03-23T03:30:29;98895.16;;;10.05;61.96
26823;BME280;14852;51.910;8.878;2024-03-23T03:32:55;98897.84;;;10.04;61.64
26823;BME280;14852;51.910;8.878;2024-03-23T03:35:21;98906.59;;;10.03;61.62
26823;BME280;14852;51.910;8.878;2024-03-23T03:37:46;98899.72;;;10.02;61.53
26823;BME280;14852;51.910;8.878;2024-03-23T03:40:13;98911.03;;;10.01;61.59
26823;BME280;14852;51.910;8.878;2024-03-23T03:42:41;98888.50;;;10.01;61.92
26823;BME280;14852;51.910;8.878;2024-03-23T03:45:07;98883.31;;;10.01;61.89
26823;BME280;14852;51.910;8.878;2024-03-23T03:47:33;98879.97;;;9.99;61.88
26823;BME280;14852;51.910;8.878;2024-03-23T03:49:59;98881.75;;;9.99;61.52
26823;BME280;14852;51.910;8.878;2024-03-23T03:52:24;98885.28;;;9.98;61.72
26823;BME280;14852;51.910;8.878;2024-03-23T03:54:50;98876.66;;;9.97;61.78
26823;BME280;14852;51.910;8.878;2024-03-23T03:57:16;98873.22;;;9.97;61.58
26823;BME280;14852;51.910;8.878;2024-03-23T03:59:42;98868.97;;;9.96;61.33
26823;BME280;14852;51.910;8.878;2024-03-23T04:02:08;98885.47;;;9.95;61.48
26823;BME280;14852;51.910;8.878;2024-03-23T04:04:33;98883.88;;;9.92;61.51
26823;BME280;14852;51.910;8.878;2024-03-23T04:07:01;98889.19;;;9.91;61.27
26823;BME280;14852;51.910;8.878;2024-03-23T04:09:28;98891.03;;;9.89;61.58
26823;BME280;14852;51.910;8.878;2024-03-23T04:11:54;98885.75;;;9.90;61.68
26823;BME280;14852;51.910;8.878;2024-03-23T04:14:20;98878.91;;;9.89;61.74
26823;BME280;14852;51.910;8.878;2024-03-23T04:16:45;98869.47;;;9.88;61.46
26823;BME280;14852;51.910;8.878;2024-03-23T04:19:11;98873.81;;;9.88;61.74
26823;BME280;14852;51.910;8.878;2024-03-23T04:21:41;98879.09;;;9.86;61.65
26823;BME280;14852;51.910;8.878;2024-03-23T04:24:06;98884.47;;;9.83;61.24
26823;BME280;14852;51.910;8.878;2024-03-23T04:26:45;98879.28;;;9.83;61.50
26823;BME280;14852;51.910;8.878;2024-03-23T04:29:11;98877.00;;;9.78;61.60
26823;BME280;14852;51.910;8.878;2024-03-23T04:31:38;98877.28;;;9.74;61.69
26823;BME280;14852;51.910;8.878;2024-03-23T04:34:04;98875.78;;;9.70;61.35
26823;BME280;14852;51.910;8.878;2024-03-23T04:36:30;98862.47;;;9.62;61.47
26823;BME280;14852;51.910;8.878;2024-03-23T04:38:59;98855.00;;;9.57;61.69
26823;BME280;14852;51.910;8.878;2024-03-23T04:41:25;98851.84;;;9.52;61.71
26823;BME280;14852;51.910;8.878;2024-03-23T04:43:51;98851.59;;;9.42;61.75
26823;BME280;14852;51.910;8.878;2024-03-23T04:46:17;98857.13;;;9.36;62.18
26823;BME280;14852;51.910;8.878;2024-03-23T04:48:43;98851.44;;;9.31;62.00
26823;BME280;14852;51.910;8.878;2024-03-23T04:51:10;98851.78;;;9.25;62.10
26823;BME280;14852;51.910;8.878;2024-03-23T04:53:38;98854.69;;;9.21;62.17
26823;BME280;14852;51.910;8.878;2024-03-23T04:56:04;98868.66;;;9.18;62.41
26823;BME280;14852;51.910;8.878;2024-03-23T04:58:30;98868.81;;;9.15;62.26
26823;BME280;14852;51.910;8.878;2024-03-23T05:00:57;98869.22;;;9.09;62.13
26823;BME280;14852;51.910;8.878;2024-03-23T05:03:23;98869.31;;;9.07;62.35
26823;BME280;14852;51.910;8.878;2024-03-23T05:05:49;98860.97;;;9.02;62.48
26823;BME280;14852;51.910;8.878;2024-03-23T05:08:16;98858.75;;;8.96;62.62
26823;BME280;14852;51.910;8.878;2024-03-23T05:10:43;98869.28;;;8.93;62.36
26823;BME280;14852;51.910;8.878;2024-03-23T05:13:09;98861.06;;;8.87;62.62
26823;BME280;14852;51.910;8.878;2024-03-23T05:15:35;98868.84;;;8.87;62.78
26823;BME280;14852;51.910;8.878;2024-03-23T05:18:01;98864.56;;;8.86;62.61
26823;BME280;14852;51.910;8.878;2024-03-23T05:20:27;98860.31;;;8.85;62.44
26823;BME280;14852;51.910;8.878;2024-03-23T05:23:11;98863.66;;;8.87;62.65
26823;BME280;14852;51.910;8.878;2024-03-23T05:25:40;98863.09;;;8.82;62.62
26823;BME280;14852;51.910;8.878;2024-03-23T05:28:12;98875.84;;;8.85;62.60
26823;BME280;14852;51.910;8.878;2024-03-23T05:30:41;98867.25;;;8.84;62.52
26823;BME280;14852;51.910;8.878;2024-03-23T05:33:19;98866.31;;;8.85;62.71
26823;BME280;14852;51.910;8.878;2024-03-23T05:35:45;98876.69;;;8.85;62.59
26823;BME280;14852;51.910;8.878;2024-03-23T05:38:16;98870.59;;;8.86;62.57
26823;BME280;14852;51.910;8.878;2024-03-23T05:40:56;98866.03;;;8.90;62.74
26823;BME280;14852;51.910;8.878;2024-03-23T05:43:23;98848.66;;;8.92;62.50
26823;BME280;14852;51.910;8.878;2024-03-23T05:45:59;98838.03;;;8.96;62.18
26823;BME280;14852;51.910;8.878;2024-03-23T05:48:31;98844.03;;;8.97;62.15
26823;BME280;14852;51.910;8.878;2024-03-23T05:51:01;98843.84;;;9.00;62.53
26823;BME280;14852;51.910;8.878;2024-03-23T05:53:27;98839.41;;;9.02;62.36
26823;BME280;14852;51.910;8.878;2024-03-23T05:56:03;98839.22;;;9.05;62.44
26823;BME280;14852;51.910;8.878;2024-03-23T05:58:29;98833.94;;;9.06;62.44
26823;BME280;14852;51.910;8.878;2024-03-23T06:01:00;98839.66;;;9.12;62.33
26823;BME280;14852;51.910;8.878;2024-03-23T06:03:27;98838.88;;;9.11;62.17
26823;BME280;14852;51.910;8.878;2024-03-23T06:05:53;98842.00;;;9.16;62.13
26823;BME280;14852;51.910;8.878;2024-03-23T06:08:20;98843.66;;;9.17;62.38
26823;BME280;14852;51.910;8.878;2024-03-23T06:10:46;98846.06;;;9.20;62.15
26823;BME280;14852;51.910;8.878;2024-03-23T06:13:13;98846.06;;;9.20;61.97
26823;BME280;14852;51.910;8.878;2024-03-23T06:15:39;98848.66;;;9.20;62.21
26823;BME280;14852;51.910;8.878;2024-03-23T06:18:05;98848.84;;;9.17;62.09
26823;BME280;14852;51.910;8.878;2024-03-23T06:20:33;98855.13;;;9.13;61.93
26823;BME280;14852;51.910;8.878;2024-03-23T06:23:03;98846.44;;;9.14;62.36
26823;BME280;14852;51.910;8.878;2024-03-23T06:25:29;98851.81;;;9.11;61.87
26823;BME280;14852;51.910;8.878;2024-03-23T06:27:55;98854.50;;;9.10;62.17
26823;BME280;14852;51.910;8.878;2024-03-23T06:30:21;98847.56;;;9.10;61.98
26823;BME280;14852;51.910;8.878;2024-03-23T06:32:47;98849.94;;;9.13;62.22
26823;BME280;14852;51.910;8.878;2024-03-23T06:35:13;98848.19;;;9.14;62.09
26823;BME280;14852;51.910;8.878;2024-03-23T06:37:38;98847.56;;;9.10;62.08
26823;BME280;14852;51.910;8.878;2024-03-23T06:40:07;98860.69;;;9.07;62.00
26823;BME280;14852;51.910;8.878;2024-03-23T06:42:36;98865.97;;;9.05;62.07
26823;BME280;14852;51.910;8.878;2024-03-23T06:45:03;98872.34;;;9.00;62.02
26823;BME280;14852;51.910;8.878;2024-03-23T06:47:30;98873.72;;;8.91;62.06
26823;BME280;14852;51.910;8.878;2024-03-23T06:49:56;98872.34;;;8.86;62.52
26823;BME280;14852;51.910;8.878;2024-03-23T06:52:22;98861.97;;;8.86;62.31
26823;BME280;14852;51.910;8.878;2024-03-23T06:54:48;98869.28;;;8.93;62.36
26823;BME280;14852;51.910;8.878;2024-03-23T06:57:13;98870.69;;;8.99;62.54
26823;BME280;14852;51.910;8.878;2024-03-23T06:59:39;98874.91;;;9.00;62.45
26823;BME280;14852;51.910;8.878;2024-03-23T07:02:08;98867.97;;;9.00;62.50
26823;BME280;14852;51.910;8.878;2024-03-23T07:04:35;98877.44;;;9.01;62.25
26823;BME280;14852;51.910;8.878;2024-03-23T07:07:02;98876.50;;;9.02;62.29
26823;BME280;14852;51.910;8.878;2024-03-23T07:09:29;98867.63;;;9.06;62.33
26823;BME280;14852;51.910;8.878;2024-03-23T07:11:58;98873.47;;;9.10;62.54
26823;BME280;14852;51.910;8.878;2024-03-23T07:14:24;98875.03;;;9.13;62.32
26823;BME280;14852;51.910;8.878;2024-03-23T07:16:51;98874.66;;;9.19;62.50
26823;BME280;14852;51.910;8.878;2024-03-23T07:19:17;98875.31;;;9.22;62.48
26823;BME280;14852;51.910;8.878;2024-03-23T07:21:44;98877.72;;;9.25;62.25
26823;BME280;14852;51.910;8.878;2024-03-23T07:24:10;98881.78;;;9.29;62.23
26823;BME280;14852;51.910;8.878;2024-03-23T07:26:36;98883.28;;;9.33;62.31
26823;BME280;14852;51.910;8.878;2024-03-23T07:29:04;98873.00;;;9.32;62.49
26823;BME280;14852;51.910;8.878;2024-03-23T07:31:30;98877.97;;;9.35;62.33
26823;BME280;14852;51.910;8.878;2024-03-23T07:33:55;98877.69;;;9.39;62.32
26823;BME280;14852;51.910;8.878;2024-03-23T07:36:21;98884.28;;;9.45;62.35
26823;BME280;14852;51.910;8.878;2024-03-23T07:38:47;98872.78;;;9.49;62.39
26823;BME280;14852;51.910;8.878;2024-03-23T07:41:18;98882.03;;;9.53;62.31
26823;BME280;14852;51.910;8.878;2024-03-23T07:43:46;98878.59;;;9.67;62.18
26823;BME280;14852;51.910;8.878;2024-03-23T07:46:15;98876.50;;;9.86;61.87
26823;BME280;14852;51.910;8.878;2024-03-23T07:48:41;98867.31;;;11.12;59.96
26823;BME280;14852;51.910;8.878;2024-03-23T07:51:16;98874.63;;;12.16;56.76
26823;BME280;14852;51.910;8.878;2024-03-23T07:53:44;98869.66;;;12.13;56.92
26823;BME280;14852;51.910;8.878;2024-03-23T07:56:11;98877.75;;;11.98;57.95
26823;BME280;14852;51.910;8.878;2024-03-23T07:58:38;98863.41;;;13.19;55.86
26823;BME280;14852;51.910;8.878;2024-03-23T08:01:06;98855.34;;;14.83;52.31
26823;BME280;14852;51.910;8.878;2024-03-23T08:03:40;98861.97;;;14.46;53.16
26823;BME280;14852;51.910;8.878;2024-03-23T08:06:18;98865.59;;;13.91;54.27
26823;BME280;14852;51.910;8.878;2024-03-23T08:08:47;98871.72;;;13.24;55.90
26823;BME280;14852;51.910;8.878;2024-03-23T08:11:13;98866.66;;;12.77;56.80
26823;BME280;14852;51.910;8.878;2024-03-23T08:13:41;98877.25;;;12.51;57.97
26823;BME280;14852;51.910;8.878;2024-03-23T08:16:07;98877.06;;;12.30;58.52
26823;BME280;14852;51.910;8.878;2024-03-23T08:18:37;98876.56;;;12.25;58.72
26823;BME280;14852;51.910;8.878;2024-03-23T08:21:05;98867.66;;;13.54;56.36
26823;BME280;14852;51.910;8.878;2024-03-23T08:23:33;98867.75;;;13.74;55.44
26823;BME280;14852;51.910;8.878;2024-03-23T08:26:11;98873.22;;;14.14;54.93
26823;BME280;14852;51.910;8.878;2024-03-23T08:28:37;98867.22;;;14.88;53.07
26823;BME280;14852;51.910;8.878;2024-03-23T08:31:11;98865.63;;;15.36;51.97
26823;BME280;14852;51.910;8.878;2024-03-23T08:33:37;98869.22;;;15.66;51.32
26823;BME280;14852;51.910;8.878;2024-03-23T08:36:09;98860.88;;;15.11;52.62
26823;BME280;14852;51.910;8.878;2024-03-23T08:38:35;98866.13;;;16.29;50.17
26823;BME280;14852;51.910;8.878;2024-03-23T08:41:06;98870.81;;;16.64;49.72
26823;BME280;14852;51.910;8.878;2024-03-23T08:43:40;98863.63;;;16.57;50.18
26823;BME280;14852;51.910;8.878;2024-03-23T08:46:11;98866.13;;;16.10;50.90
26823;BME280;14852;51.910;8.878;2024-03-23T08:48:47;98874.69;;;15.23;52.35
26823;BME280;14852;51.910;8.878;2024-03-23T08:51:16;98875.84;;;14.46;53.89
26823;BME280;14852;51.910;8.878;2024-03-23T08:53:43;98874.25;;;13.91;55.78
26823;BME280;14852;51.910;8.878;2024-03-23T08:56:09;98879.16;;;13.62;55.96
26823;BME280;14852;51.910;8.878;2024-03-23T08:58:36;98880.97;;;13.28;56.51
26823;BME280;14852;51.910;8.878;2024-03-23T09:01:05;98883.47;;;13.19;57.37
26823;BME280;14852;51.910;8.878;2024-03-23T09:03:31;98884.41;;;13.40;56.06
26823;BME280;14852;51.910;8.878;2024-03-23T09:05:57;98884.28;;;13.41;56.24
26823;BME280;14852;51.910;8.878;2024-03-23T09:08:24;98889.72;;;13.27;56.11
26823;BME280;14852;51.910;8.878;2024-03-23T09:10:50;98893.00;;;13.07;56.57
26823;BME280;14852;51.910;8.878;2024-03-23T09:13:16;98884.78;;;14.44;53.69
26823;BME280;14852;51.910;8.878;2024-03-23T09:15:52;98889.50;;;14.92;52.58
26823;BME280;14852;51.910;8.878;2024-03-23T09:18:22;98890.69;;;15.29;50.82
26823;BME280;14852;51.910;8.878;2024-03-23T09:20:47;98890.44;;;15.72;50.35
26823;BME280;14852;51.910;8.878;2024-03-23T09:23:13;98890.06;;;15.16;51.36
26823;BME280;14852;51.910;8.878;2024-03-23T09:25:39;98886.31;;;15.09;52.06
26823;BME280;14852;51.910;8.878;2024-03-23T09:28:06;98894.69;;;16.13;49.92
26823;BME280;14852;51.910;8.878;2024-03-23T09:30:35;98887.81;;;15.63;50.79
26823;BME280;14852;51.910;8.878;2024-03-23T09:33:02;98879.09;;;15.01;52.07
26823;BME280;14852;51.910;8.878;2024-03-23T09:35:28;98890.28;;;14.41;52.71
26823;BME280;14852;51.910;8.878;2024-03-23T09:37:54;98885.81;;;14.09;54.15
26823;BME280;14852;51.910;8.878;2024-03-23T09:40:20;98887.44;;;14.22;53.75
26823;BME280;14852;51.910;8.878;2024-03-23T09:42:50;98879.13;;;14.28;53.67
26823;BME280;14852;51.910;8.878;2024-03-23T09:45:27;98874.66;;;14.51;53.34
26823;BME280;14852;51.910;8.878;2024-03-23T09:47:55;98860.69;;;14.61;52.66
26823;BME280;14852;51.910;8.878;2024-03-23T09:50:21;98873.13;;;14.48;53.11
26823;BME280;14852;51.910;8.878;2024-03-23T09:52:47;98870.00;;;14.54;53.20
26823;BME280;14852;51.910;8.878;2024-03-23T09:55:13;98873.66;;;14.63;53.04
26823;BME280;14852;51.910;8.878;2024-03-23T09:57:40;98866.94;;;14.49;53.17
26823;BME280;14852;51.910;8.878;2024-03-23T10:00:06;98867.63;;;14.19;53.20
26823;BME280;14852;51.910;8.878;2024-03-23T10:02:34;98869.38;;;13.87;53.59
26823;BME280;14852;51.910;8.878;2024-03-23T10:05:01;98868.97;;;13.59;54.33
26823;BME280;14852;51.910;8.878;2024-03-23T10:07:27;98875.06;;;13.37;54.50
26823;BME280;14852;51.910;8.878;2024-03-23T10:09:56;98865.69;;;13.24;54.46
26823;BME280;14852;51.910;8.878;2024-03-23T10:12:23;98857.59;;;13.16;54.35
26823;BME280;14852;51.910;8.878;2024-03-23T10:14:50;98851.41;;;13.05;54.61
26823;BME280;14852;51.910;8.878;2024-03-23T10:17:20;98852.72;;;13.00;54.45
26823;BME280;14852;51.910;8.878;2024-03-23T10:19:52;98860.03;;;12.95;55.00
26823;BME280;14852;51.910;8.878;2024-03-23T10:22:23;98860.53;;;13.11;54.77
26823;BME280;14852;51.910;8.878;2024-03-23T10:24:50;98850.38;;;13.41;54.13
26823;BME280;14852;51.910;8.878;2024-03-23T10:27:18;98848.66;;;13.63;53.32
26823;BME280;14852;51.910;8.878;2024-03-23T10:29:48;98839.41;;;13.70;52.89
26823;BME280;14852;51.910;8.878;2024-03-23T10:32:18;98853.47;;;13.90;52.37
26823;BME280;14852;51.910;8.878;2024-03-23T10:34:45;98846.09;;;14.06;52.15
26823;BME280;14852;51.910;8.878;2024-03-23T10:37:10;98842.19;;;14.21;51.74
26823;BME280;14852;51.910;8.878;2024-03-23T10:39:39;98843.97;;;14.21;51.48
26823;BME280;14852;51.910;8.878;2024-03-23T10:42:09;98827.16;;;14.13;51.81
26823;BME280;14852;51.910;8.878;2024-03-23T10:44:39;98847.19;;;13.92;52.03
26823;BME280;14852;51.910;8.878;2024-03-23T10:47:05;98845.25;;;13.51;51.77
26823;BME280;14852;51.910;8.878;2024-03-23T10:49:35;98837.41;;;13.06;52.41
26823;BME280;14852;51.910;8.878;2024-03-23T10:52:05;98833.16;;;13.05;53.15
26823;BME280;14852;51.910;8.878;2024-03-23T10:54:32;98833.44;;;13.36;53.30
26823;BME280;14852;51.910;8.878;2024-03-23T10:57:14;98830.53;;;13.61;52.63
26823;BME280;14852;51.910;8.878;2024-03-23T10:59:41;98848.44;;;13.55;51.93
26823;BME280;14852;51.910;8.878;2024-03-23T11:02:08;98854.03;;;13.28;52.12
26823;BME280;14852;51.910;8.878;2024-03-23T11:04:43;98868.25;;;12.90;52.33
26823;BME280;14852;51.910;8.878;2024-03-23T11:09:51;98876.13;;;12.31;52.55
26823;BME280;14852;51.910;8.878;2024-03-23T11:15:04;98878.97;;;12.05;52.64
26823;BME280;14852;51.910;8.878;2024-03-23T11:17:30;98882.03;;;11.99;51.97
26823;BME280;14852;51.910;8.878;2024-03-23T11:20:01;98875.38;;;11.94;52.06
26823;BME280;14852;51.910;8.878;2024-03-23T11:22:46;98886.50;;;11.96;52.37
26823;BME280;14852;51.910;8.878;2024-03-23T11:25:24;98880.34;;;11.98;52.15
26823;BME280;14852;51.910;8.878;2024-03-23T11:28:09;98877.31;;;12.04;51.67
26823;BME280;14852;51.910;8.878;2024-03-23T11:30:35;98873.44;;;12.09;51.74
26823;BME280;14852;51.910;8.878;2024-03-23T11:33:04;98871.78;;;12.08;51.57
26823;BME280;14852;51.910;8.878;2024-03-23T11:35:40;98889.53;;;12.14;51.66
26823;BME280;14852;51.910;8.878;2024-03-23T11:38:16;98887.28;;;12.10;52.11
26823;BME280;14852;51.910;8.878;2024-03-23T11:40:49;98882.84;;;11.99;52.21
26823;BME280;14852;51.910;8.878;2024-03-23T11:43:20;98884.13;;;11.93;52.05
26823;BME280;14852;51.910;8.878;2024-03-23T11:45:49;98881.56;;;11.81;51.99
26823;BME280;14852;51.910;8.878;2024-03-23T11:48:21;98880.00;;;11.78;51.88
26823;BME280;14852;51.910;8.878;2024-03-23T11:50:54;98877.66;;;11.99;52.14
26823;BME280;14852;51.910;8.878;2024-03-23T11:53:24;98874.63;;;12.16;51.55
26823;BME280;14852;51.910;8.878;2024-03-23T11:55:53;98874.50;;;12.42;52.08
26823;BME280;14852;51.910;8.878;2024-03-23T11:58:21;98864.28;;;12.74;51.61
26823;BME280;14852;51.910;8.878;2024-03-23T12:00:59;98850.09;;;13.00;50.76
26823;BME280;14852;51.910;8.878;2024-03-23T12:03:26;98851.78;;;13.12;50.39
26823;BME280;14852;51.910;8.878;2024-03-23T12:05:55;98841.34;;;13.12;50.89
26823;BME280;14852;51.910;8.878;2024-03-23T12:08:23;98838.53;;;13.15;51.12
26823;BME280;14852;51.910;8.878;2024-03-23T12:11:04;98827.72;;;13.20;51.10
26823;BME280;14852;51.910;8.878;2024-03-23T12:13:31;98820.00;;;13.40;51.19
26823;BME280;14852;51.910;8.878;2024-03-23T12:16:19;98815.34;;;13.66;50.44
26823;BME280;14852;51.910;8.878;2024-03-23T12:18:49;98806.91;;;13.63;50.08
26823;BME280;14852;51.910;8.878;2024-03-23T12:21:16;98788.78;;;13.61;50.13
26823;BME280;14852;51.910;8.878;2024-03-23T12:23:43;98804.44;;;13.61;49.65
26823;BME280;14852;51.910;8.878;2024-03-23T12:26:11;98801.31;;;13.67;49.67
26823;BME280;14852;51.910;8.878;2024-03-23T12:28:37;98800.38;;;13.68;49.40
26823;BME280;14852;51.910;8.878;2024-03-23T12:31:04;98803.81;;;13.69;48.92
26823;BME280;14852;51.910;8.878;2024-03-23T12:33:30;98796.09;;;13.67;48.69
26823;BME280;14852;51.910;8.878;2024-03-23T12:35:55;98798.22;;;13.73;48.32
26823;BME280;14852;51.910;8.878;2024-03-23T12:38:21;98799.03;;;13.74;48.99
26823;BME280;14852;51.910;8.878;2024-03-23T12:40:48;98789.91;;;13.80;48.69
26823;BME280;14852;51.910;8.878;2024-03-23T12:43:15;98780.41;;;13.78;47.78
26823;BME280;14852;51.910;8.878;2024-03-23T12:45:41;98785.78;;;13.66;48.24
26823;BME280;14852;51.910;8.878;2024-03-23T12:48:07;98798.75;;;13.56;47.93
26823;BME280;14852;51.910;8.878;2024-03-23T12:50:33;98820.25;;;13.37;47.59
26823;BME280;14852;51.910;8.878;2024-03-23T12:52:59;98845.38;;;13.16;47.59
26823;BME280;14852;51.910;8.878;2024-03-23T12:55:24;98860.81;;;12.62;47.76
26823;BME280;14852;51.910;8.878;2024-03-23T12:57:50;98884.13;;;11.93;48.28
26823;BME280;14852;51.910;8.878;2024-03-23T13:00:16;98889.53;;;11.41;49.73
26823;BME280;14852;51.910;8.878;2024-03-23T13:02:42;98879.66;;;11.08;50.43
26823;BME280;14852;51.910;8.878;2024-03-23T13:05:08;98879.78;;;10.81;50.28
26823;BME280;14852;51.910;8.878;2024-03-23T13:07:37;98874.03;;;10.64;51.15
26823;BME280;14852;51.910;8.878;2024-03-23T13:10:05;98860.22;;;10.76;51.16
26823;BME280;14852;51.910;8.878;2024-03-23T13:12:32;98862.31;;;11.09;51.10
26823;BME280;14852;51.910;8.878;2024-03-23T13:14:59;98861.44;;;11.46;50.58
26823;BME280;14852;51.910;8.878;2024-03-23T13:17:26;98863.69;;;11.76;50.33
26823;BME280;14852;51.910;8.878;2024-03-23T13:19:55;98863.84;;;11.86;50.37
26823;BME280;14852;51.910;8.878;2024-03-23T13:22:22;98858.84;;;11.83;50.17
26823;BME280;14852;51.910;8.878;2024-03-23T13:24:47;98861.34;;;11.84;50.55
26823;BME280;14852;51.910;8.878;2024-03-23T13:27:13;98857.28;;;11.80;50.49
26823;BME280;14852;51.910;8.878;2024-03-23T13:29:39;98858.34;;;11.78;50.74
26823;BME280;14852;51.910;8.878;2024-03-23T13:32:05;98868.69;;;11.90;50.34
26823;BME280;14852;51.910;8.878;2024-03-23T13:34:31;98862.34;;;11.94;50.16
26823;BME280;14852;51.910;8.878;2024-03-23T13:36:59;98856.69;;;12.01;50.35
26823;BME280;14852;51.910;8.878;2024-03-23T13:39:25;98857.66;;;12.00;49.93
26823;BME280;14852;51.910;8.878;2024-03-23T13:41:53;98865.56;;;11.98;49.71
26823;BME280;14852;51.910;8.878;2024-03-23T13:44:18;98864.69;;;11.86;50.19
26823;BME280;14852;51.910;8.878;2024-03-23T13:46:44;98866.66;;;11.83;50.30
26823;BME280;14852;51.910;8.878;2024-03-23T13:49:30;98867.03;;;11.89;50.07
26823;BME280;14852;51.910;8.878;2024-03-23T13:51:58;98864.56;;;11.88;50.50
26823;BME280;14852;51.910;8.878;2024-03-23T13:54:25;98861.00;;;11.89;50.12
26823;BME280;14852;51.910;8.878;2024-03-23T13:56:52;98849.66;;;11.90;50.03
26823;BME280;14852;51.910;8.878;2024-03-23T13:59:18;98863.41;;;11.92;50.07
26823;BME280;14852;51.910;8.878;2024-03-23T14:01:45;98855.69;;;11.90;49.73
26823;BME280;14852;51.910;8.878;2024-03-23T14:04:12;98896.97;;;11.84;49.86